Farmington ASC

2021-03-02 07:20:00

  • imperial
Date Time Air Temperature Relative Humidity Dewpoint Windchill Heat Index Wind Speed Wind Dir. Rain Solar Radiation Soil Temperature
2m 2m 3m 3m 10cm
US/Mountain F % F F F MPH deg in MJ/m^2 F
max avg avg
2021-03-01 07:30:00 17.9 49.4 2.1 17.9 17.9 1.9 3.0 2.3 75.2 77.5 0.00 0.1130000 33.5
2021-03-01 07:35:00 19.4 46.7 2.3 19.4 19.4 1.7 2.2 1.9 88.0 85.1 0.00 0.1530000 33.5
2021-03-01 07:40:00 21.9 43.0 2.8 21.9 21.9 2.1 2.2 1.7 76.9 73.7 0.00 0.1690000 33.5
2021-03-01 07:45:00 22.9 45.8 5.1 22.9 22.9 2.8 3.3 2.2 314.0 358.0 0.00 0.1850000 33.5
2021-03-01 07:50:00 21.7 44.2 3.2 21.7 21.7 1.3 3.7 2.6 300.5 309.1 0.00 0.2010000 33.5
2021-03-01 07:55:00 22.5 46.4 5.0 22.5 22.5 1.2 1.7 1.4 335.5 312.6 0.00 0.2180000 33.5
2021-03-01 08:00:00 23.7 46.6 6.2 23.7 23.7 1.5 1.7 1.3 243.3 274.6 0.00 0.2350000 33.5
2021-03-01 08:05:00 25.1 37.7 2.9 25.1 25.1 2.2 2.4 1.8 18.2 336.4 0.00 0.2520000 33.5
2021-03-01 08:10:00 25.9 35.2 2.1 25.9 25.9 1.9 3.3 2.4 55.5 16.9 0.00 0.2680000 33.5
2021-03-01 08:15:00 27.2 32.8 1.7 27.2 27.2 3.0 3.8 2.4 29.3 45.2 0.00 0.2860000 33.5
2021-03-01 08:20:00 26.9 29.6 -0.7 26.9 26.9 3.0 4.0 2.6 328.4 27.9 0.00 0.3010000 33.5
2021-03-01 08:25:00 26.9 31.0 0.3 22.4 26.9 3.8 4.0 3.0 6.7 1.6 0.00 0.3180000 33.5
2021-03-01 08:30:00 28.1 30.2 0.7 24.4 28.1 3.3 3.5 2.2 3.9 24.2 0.00 0.3340000 33.5
2021-03-01 08:35:00 28.4 36.1 4.9 28.4 28.4 2.2 3.7 2.8 83.9 6.4 0.00 0.3490000 33.4
2021-03-01 08:40:00 28.9 31.4 2.3 24.6 28.9 3.8 4.6 2.9 49.1 17.9 0.00 0.3650000 33.4
2021-03-01 08:45:00 28.3 33.2 2.9 24.0 28.3 3.8 5.8 4.1 0.5 16.6 0.00 0.3800000 33.4
2021-03-01 08:50:00 30.0 31.1 3.1 26.6 30.0 3.3 4.0 2.4 12.4 59.1 0.00 0.3970000 33.4
2021-03-01 08:55:00 29.1 31.8 2.8 24.9 29.1 3.8 6.0 3.8 339.9 11.6 0.00 0.4110000 33.4
2021-03-01 09:00:00 29.1 31.9 2.8 22.9 29.1 5.8 6.3 4.5 4.3 16.0 0.00 0.4260000 33.4
2021-03-01 09:05:00 29.8 30.7 2.6 29.8 29.8 2.8 5.6 3.4 14.5 23.8 0.00 0.4430000 33.4
2021-03-01 09:10:00 30.6 31.9 4.1 27.1 30.6 3.5 4.6 3.2 19.8 31.5 0.00 0.4570000 33.4
2021-03-01 09:15:00 30.2 31.3 3.4 23.4 30.2 6.9 6.9 4.1 3.0 15.2 0.00 0.4720000 33.4
2021-03-01 09:20:00 30.1 30.3 2.6 24.9 30.1 4.9 8.7 4.9 28.6 21.2 0.00 0.4860000 33.4
2021-03-01 09:25:00 29.9 31.5 3.3 29.9 29.9 2.8 5.8 3.9 326.7 350.9 0.00 0.4970000 33.4
2021-03-01 09:30:00 31.2 31.6 4.4 27.2 31.2 3.8 4.9 3.3 323.3 30.5 0.00 0.5120000 33.4
2021-03-01 09:35:00 30.9 33.1 5.2 30.9 30.9 3.0 6.2 4.5 0.1 6.7 0.00 0.5240000 33.4
2021-03-01 09:40:00 32.0 28.5 2.9 28.9 32.0 3.3 5.6 3.8 331.8 16.7 0.00 0.5360000 33.4
2021-03-01 09:45:00 31.2 29.2 2.7 31.2 31.2 2.8 6.2 4.2 328.7 10.4 0.00 0.5490000 33.4
2021-03-01 09:50:00 31.3 28.2 2.1 25.6 31.3 5.6 5.8 3.5 10.3 351.5 0.00 0.5630000 33.4
2021-03-01 09:55:00 32.4 30.0 4.4 29.6 32.4 3.1 4.9 3.0 8.8 358.2 0.00 0.5760000 33.4
2021-03-01 10:00:00 32.7 27.7 2.9 32.7 32.7 1.5 5.3 3.2 191.7 3.9 0.00 0.5870000 33.4
2021-03-01 10:05:00 33.6 27.0 3.1 33.6 33.6 3.0 4.9 2.8 40.9 27.0 0.00 0.6000000 33.4
2021-03-01 10:10:00 32.2 28.7 3.3 29.4 32.2 3.1 6.7 4.6 29.8 303.1 0.00 0.6100000 33.4
2021-03-01 10:15:00 33.2 27.4 3.1 27.9 33.2 5.6 7.2 4.0 317.2 301.6 0.00 0.6170000 33.4
2021-03-01 10:20:00 32.7 27.5 2.8 27.8 32.7 5.1 7.1 4.3 269.1 300.4 0.00 0.6300000 33.4
2021-03-01 10:25:00 33.0 31.0 5.6 30.3 33.0 3.1 4.6 3.7 187.6 228.5 0.00 0.6390000 33.3
2021-03-01 10:30:00 33.0 27.9 3.3 28.7 33.0 4.6 6.0 4.8 313.4 328.8 0.00 0.6480000 33.4
2021-03-01 10:35:00 33.7 27.5 3.7 30.0 33.7 4.0 5.6 4.0 339.2 295.5 0.00 0.6570000 33.3
2021-03-01 10:40:00 33.7 27.2 3.4 30.2 33.7 3.8 5.3 3.3 242.3 280.9 0.00 0.6680000 33.3
2021-03-01 10:45:00 34.0 27.5 3.9 34.0 34.0 2.4 6.2 3.6 317.6 275.0 0.00 0.6740000 33.3
2021-03-01 10:50:00 34.4 25.4 2.5 34.4 34.4 2.4 6.7 4.3 242.1 316.1 0.00 0.6850000 33.3
2021-03-01 10:55:00 35.2 24.6 2.4 31.7 35.2 4.0 5.8 3.8 6.0 334.6 0.00 0.6910000 33.3
2021-03-01 11:00:00 35.6 23.4 1.8 35.6 35.6 1.9 6.0 3.1 234.7 287.8 0.00 0.7010000 33.3
2021-03-01 11:05:00 35.4 22.8 1.1 32.3 35.4 3.7 4.2 3.1 288.3 291.3 0.00 0.7070000 33.3
2021-03-01 11:10:00 35.6 22.6 1.0 35.6 35.6 1.9 6.9 3.5 72.1 34.3 0.00 0.7130000 33.4
2021-03-01 11:15:00 37.1 21.7 1.4 37.1 37.1 2.1 4.9 3.5 126.0 21.7 0.00 0.7190000 33.4
2021-03-01 11:20:00 37.0 21.5 1.1 34.4 37.0 3.5 4.6 3.1 161.5 143.8 0.00 0.7260000 33.5
2021-03-01 11:25:00 38.1 20.3 0.8 38.1 38.1 2.1 4.6 3.0 68.5 144.1 0.00 0.7320000 33.6
2021-03-01 11:30:00 39.5 18.6 0.2 36.4 39.5 4.4 5.6 3.1 290.6 175.2 0.00 0.7360000 33.7
2021-03-01 11:35:00 38.9 19.4 0.5 38.9 38.9 2.6 4.2 2.9 55.1 358.0 0.00 0.7430000 33.8
2021-03-01 11:40:00 39.5 19.0 0.6 36.6 39.5 4.2 5.5 3.1 343.1 47.0 0.00 0.7460000 34.0
2021-03-01 11:45:00 38.4 20.0 0.8 36.2 38.4 3.3 6.7 4.2 158.9 9.5 0.00 0.7490000 34.1
2021-03-01 11:50:00 39.4 18.2 -0.4 39.4 39.4 3.0 5.6 3.1 24.4 46.4 0.00 0.7540000 34.3
2021-03-01 11:55:00 38.9 18.6 -0.3 38.9 38.9 2.4 5.8 3.4 342.7 341.9 0.00 0.7560000 34.4
2021-03-01 12:00:00 38.2 18.7 -0.9 38.2 38.2 2.8 8.0 4.6 43.3 355.8 0.00 0.7580000 34.6
2021-03-01 12:05:00 39.0 18.0 -1.0 35.5 39.0 4.7 5.6 4.0 217.3 251.3 0.00 0.7600000 34.8
2021-03-01 12:10:00 39.7 17.0 -1.7 36.6 39.7 4.4 6.0 3.9 294.0 291.3 0.00 0.7630000 34.9
2021-03-01 12:15:00 39.2 19.0 0.3 37.0 39.2 3.3 6.3 3.9 279.9 272.2 0.00 0.7650000 35.1
2021-03-01 12:20:00 39.7 16.1 -2.8 37.0 39.7 3.8 5.8 4.4 216.7 223.5 0.00 0.7640000 35.3
2021-03-01 12:25:00 40.6 15.0 -3.5 40.6 40.6 1.5 4.7 2.8 146.9 146.3 0.00 0.7650000 35.5
2021-03-01 12:30:00 40.3 14.7 -4.2 38.1 40.3 3.5 6.9 3.6 204.9 192.5 0.00 0.7650000 35.7
2021-03-01 12:35:00 40.7 15.2 -3.2 37.6 40.7 4.6 5.6 2.9 212.3 215.6 0.00 0.7660000 35.8
2021-03-01 12:40:00 42.1 15.2 -2.1 42.1 42.1 2.6 5.3 2.1 223.7 235.5 0.00 0.7660000 36.1
2021-03-01 12:45:00 41.4 15.0 -2.9 37.7 41.4 5.6 6.5 4.3 244.3 246.4 0.00 0.7640000 36.2
2021-03-01 12:50:00 41.1 16.0 -1.8 38.4 41.1 4.2 6.5 4.6 197.8 218.9 0.00 0.7600000 36.4
2021-03-01 12:55:00 41.3 14.5 -3.7 37.8 41.3 5.3 5.8 4.5 224.5 187.1 0.00 0.7580000 36.6
2021-03-01 13:00:00 41.8 14.8 -2.9 41.8 41.8 2.8 5.3 3.2 255.1 242.5 0.00 0.7570000 36.7
2021-03-01 13:05:00 42.1 14.0 -3.7 40.3 42.1 3.5 4.9 3.4 316.9 300.5 0.00 0.7530000 36.9
2021-03-01 13:10:00 43.2 13.5 -3.6 41.0 43.2 4.0 4.2 2.5 86.7 359.4 0.00 0.7500000 37.1
2021-03-01 13:15:00 43.6 13.5 -3.4 43.6 43.6 1.3 4.2 2.9 281.2 13.4 0.00 0.7470000 37.3
2021-03-01 13:20:00 42.9 14.2 -2.8 40.5 42.9 4.2 5.6 3.5 279.9 270.8 0.00 0.7420000 37.4
2021-03-01 13:25:00 43.6 13.2 -3.8 39.2 43.6 7.4 7.8 3.2 260.5 245.5 0.00 0.7390000 37.6
2021-03-01 13:30:00 43.1 13.5 -3.7 39.1 43.1 6.5 6.9 5.6 222.0 274.7 0.00 0.7300000 37.8
2021-03-01 13:35:00 42.6 13.4 -4.3 42.6 42.6 2.8 7.1 4.7 283.2 262.4 0.00 0.7210000 37.9
2021-03-01 13:40:00 43.1 13.0 -4.5 41.7 43.1 3.1 7.1 4.0 292.3 293.2 0.00 0.7180000 38.1
2021-03-01 13:45:00 43.1 12.9 -4.7 39.2 43.1 6.3 7.2 3.9 276.1 244.6 0.00 0.7120000 38.2
2021-03-01 13:50:00 42.7 13.5 -4.0 40.0 42.7 4.6 7.2 5.0 275.0 267.4 0.00 0.7060000 38.4
2021-03-01 13:55:00 43.6 13.0 -4.0 43.6 43.6 1.9 5.8 3.1 143.9 316.3 0.00 0.6980000 38.5
2021-03-01 14:00:00 44.2 12.8 -3.9 42.3 44.2 3.8 6.0 3.4 64.6 352.7 0.00 0.6900000 38.6
2021-03-01 14:05:00 45.6 12.0 -4.1 40.6 45.6 10.1 10.1 4.2 0.5 37.4 0.00 0.6820000 38.8
2021-03-01 14:10:00 44.1 13.0 -3.7 39.7 44.1 7.8 7.8 5.9 309.4 331.8 0.00 0.6720000 38.9
2021-03-01 14:15:00 45.4 12.7 -3.2 45.4 45.4 2.6 7.1 3.2 250.4 297.6 0.00 0.6670000 39.0
2021-03-01 14:20:00 44.6 13.3 -2.8 44.6 44.6 2.1 6.2 3.7 147.4 272.6 0.00 0.6540000 39.1
2021-03-01 14:25:00 44.9 12.3 -4.2 42.9 44.9 4.0 5.8 4.1 147.0 69.9 0.00 0.6460000 39.2
2021-03-01 14:30:00 46.1 11.9 -3.9 44.2 46.1 4.2 6.9 4.3 38.2 55.5 0.00 0.6360000 39.3
2021-03-01 14:35:00 46.7 11.8 -3.7 45.1 46.7 3.8 6.2 3.9 20.0 76.0 0.00 0.6260000 39.5
2021-03-01 14:40:00 45.3 12.3 -4.0 42.0 45.3 6.0 6.9 4.2 342.8 7.6 0.00 0.6150000 39.5
2021-03-01 14:45:00 45.6 11.5 -5.0 45.6 45.6 2.6 6.0 3.6 155.0 67.8 0.00 0.6040000 39.6
2021-03-01 14:50:00 47.9 10.7 -4.8 46.4 47.9 4.0 4.0 2.6 47.8 4.8 0.00 0.5940000 39.7
2021-03-01 14:55:00 46.9 11.2 -4.6 44.2 46.9 5.6 5.8 3.9 22.6 3.2 0.00 0.5820000 39.7
2021-03-01 15:00:00 47.3 11.8 -3.2 46.3 47.3 3.3 4.6 3.3 26.8 39.8 0.00 0.5700000 39.8
2021-03-01 15:05:00 47.4 11.6 -3.4 45.8 47.4 4.0 6.7 4.1 38.2 45.8 0.00 0.5580000 39.8
2021-03-01 15:10:00 46.8 12.4 -2.6 46.8 46.8 1.3 6.7 3.7 249.4 337.4 0.00 0.5450000 39.9
2021-03-01 15:15:00 47.3 11.6 -3.6 45.5 47.3 4.4 5.8 3.0 0.1 332.2 0.00 0.5310000 39.9
2021-03-01 15:20:00 46.8 11.3 -4.5 44.2 46.8 5.5 6.7 3.6 343.9 337.8 0.00 0.5180000 40.0
2021-03-01 15:25:00 46.7 12.0 -3.4 46.7 46.7 2.1 4.7 2.9 24.4 22.2 0.00 0.5040000 40.0
2021-03-01 15:30:00 47.9 11.1 -3.9 47.9 47.9 2.2 3.8 2.5 328.1 28.1 0.00 0.4900000 40.1
2021-03-01 15:35:00 49.0 10.7 -3.9 49.0 49.0 2.8 3.0 2.0 322.5 54.1 0.00 0.4770000 40.1
2021-03-01 15:40:00 48.6 11.0 -3.6 47.8 48.6 3.3 4.2 3.1 326.8 36.0 0.00 0.4620000 40.1
2021-03-01 15:45:00 47.4 11.4 -3.7 47.4 47.4 1.5 4.7 3.4 203.0 342.5 0.00 0.4470000 40.2
2021-03-01 15:50:00 48.1 11.3 -3.6 46.7 48.1 3.8 5.8 3.0 133.2 101.6 0.00 0.4320000 40.2
2021-03-01 15:55:00 49.2 10.1 -4.9 47.7 49.2 4.2 4.2 2.4 109.9 96.4 0.00 0.4180000 40.2
2021-03-01 16:00:00 48.9 10.5 -4.3 47.5 48.9 4.2 5.5 2.9 143.3 111.7 0.00 0.4020000 40.2
2021-03-01 16:05:00 48.2 10.4 -5.2 48.2 48.2 2.4 5.6 3.5 136.2 137.1 0.00 0.3860000 40.2
2021-03-01 16:10:00 49.2 10.1 -4.9 47.6 49.2 4.4 4.4 2.3 135.9 73.9 0.00 0.3710000 40.2
2021-03-01 16:15:00 48.6 10.6 -4.4 48.6 48.6 1.3 4.2 2.5 180.5 141.5 0.00 0.3550000 40.2
2021-03-01 16:20:00 48.7 11.0 -3.5 47.4 48.7 3.8 4.9 2.8 280.0 260.7 0.00 0.3410000 40.3
2021-03-01 16:25:00 47.1 11.7 -3.4 44.0 47.1 6.3 8.3 5.1 298.0 288.4 0.00 0.3230000 40.2
2021-03-01 16:30:00 47.4 11.6 -3.5 45.2 47.4 4.9 6.3 4.3 345.2 359.8 0.00 0.3060000 40.2
2021-03-01 16:35:00 47.4 11.8 -3.0 46.2 47.4 3.7 6.3 3.8 45.1 20.6 0.00 0.2900000 40.2
2021-03-01 16:40:00 47.3 11.4 -3.9 47.3 47.3 2.2 4.6 3.1 340.3 2.0 0.00 0.2730000 40.2
2021-03-01 16:45:00 47.9 11.1 -4.0 46.2 47.9 4.4 4.7 2.5 15.0 323.0 0.00 0.2570000 40.2
2021-03-01 16:50:00 47.2 12.0 -2.9 47.2 47.2 3.0 4.9 4.1 297.0 325.5 0.00 0.2410000 40.2
2021-03-01 16:55:00 47.2 11.5 -3.9 47.2 47.2 2.1 5.1 3.3 313.5 307.5 0.00 0.2240000 40.2
2021-03-01 17:00:00 47.0 11.5 -3.9 46.0 47.0 3.3 5.1 3.3 16.1 330.1 0.00 0.2070000 40.2
2021-03-01 17:05:00 46.9 11.7 -3.6 45.6 46.9 3.5 4.4 3.5 55.2 356.6 0.00 0.1910000 40.1
2021-03-01 17:10:00 46.9 11.5 -4.1 46.9 46.9 2.1 4.0 2.5 0.1 359.6 0.00 0.1750000 40.1
2021-03-01 17:15:00 46.7 11.7 -3.8 45.0 46.7 4.0 4.7 3.3 11.2 331.9 0.00 0.1590000 40.1
2021-03-01 17:20:00 46.8 11.6 -4.0 46.8 46.8 2.2 4.0 2.7 284.9 358.0 0.00 0.1440000 40.1
2021-03-01 17:25:00 46.7 11.6 -4.0 46.7 46.7 2.6 3.3 2.5 0.8 336.5 0.00 0.1240000 40.0
2021-03-01 17:30:00 46.4 12.2 -3.2 46.4 46.4 2.6 2.8 2.2 12.8 9.7 0.00 0.1030000 40.0
2021-03-01 17:35:00 46.5 12.1 -3.3 46.5 46.5 2.2 2.4 1.9 47.5 16.5 0.00 0.0830000 39.9
2021-03-01 17:40:00 46.1 12.4 -3.1 46.1 46.1 1.5 2.4 1.8 6.3 16.0 0.00 0.0640000 39.9
2021-03-01 17:45:00 45.3 12.8 -3.0 45.3 45.3 1.0 3.0 1.6 9.0 6.2 0.00 0.0470000 39.8
2021-03-01 17:50:00 45.4 13.3 -2.2 45.4 45.4 0.0 1.2 0.7 21.7 15.2 0.00 0.0330000 39.8
2021-03-01 17:55:00 44.6 13.5 -2.5 44.6 44.6 1.2 1.2 0.7 0.9 19.0 0.00 0.0210000 39.7
2021-03-01 18:00:00 43.4 13.9 -2.9 43.4 43.4 0.0 1.9 1.3 20.3 9.1 0.00 0.0130000 39.7
2021-03-01 18:05:00 42.5 14.0 -3.4 42.5 42.5 1.3 1.3 0.7 35.4 25.6 0.00 0.0070000 39.6
2021-03-01 18:10:00 41.1 14.8 -3.5 41.1 41.1 1.3 2.2 1.5 55.2 51.9 0.00 0.0040000 39.5
2021-03-01 18:15:00 39.6 15.5 -3.7 39.6 39.6 1.9 2.2 1.8 32.4 57.5 0.00 0.0030000 39.5
2021-03-01 18:20:00 38.4 15.8 -4.2 38.4 38.4 2.1 2.4 1.9 32.3 59.5 0.00 0.0010000 39.4
2021-03-01 18:25:00 37.3 16.3 -4.5 37.3 37.3 2.4 2.4 1.9 31.2 24.8 0.00 0.0010000 39.3
2021-03-01 18:30:00 37.1 16.0 -5.0 37.1 37.1 1.7 2.4 1.6 27.2 23.9 0.00 0.0000000 39.2
2021-03-01 18:35:00 36.0 16.8 -5.0 36.0 36.0 1.7 2.8 2.0 24.4 34.8 0.00 0.0000000 39.1
2021-03-01 18:40:00 34.6 17.7 -5.0 34.6 34.6 2.6 3.0 2.2 56.8 57.3 0.00 0.0000000 39.0
2021-03-01 18:45:00 34.0 17.8 -5.4 34.0 34.0 2.2 2.6 2.2 64.7 52.3 0.00 0.0000000 38.9
2021-03-01 18:50:00 34.6 17.3 -5.4 34.6 34.6 2.6 2.8 2.3 51.2 48.0 0.00 0.0000000 38.9
2021-03-01 18:55:00 34.6 17.1 -5.6 34.6 34.6 1.9 2.4 2.0 67.8 54.8 0.00 0.0000000 38.8
2021-03-01 19:00:00 33.8 17.8 -5.6 33.8 33.8 2.1 2.4 1.9 50.4 61.1 0.00 0.0000000 38.7
2021-03-01 19:05:00 33.6 17.9 -5.5 33.6 33.6 2.4 2.8 2.1 54.6 51.7 0.00 0.0000000 38.6
2021-03-01 19:10:00 32.6 18.6 -5.6 29.8 32.6 3.1 3.1 2.8 69.6 64.2 0.00 0.0000000 38.6
2021-03-01 19:15:00 31.7 19.2 -5.7 31.7 31.7 2.4 3.1 2.6 73.9 66.1 0.00 0.0000000 38.5
2021-03-01 19:20:00 31.8 18.9 -5.9 31.8 31.8 2.8 3.0 2.6 67.9 67.4 0.00 0.0000000 38.4
2021-03-01 19:25:00 30.9 19.3 -6.3 27.4 30.9 3.5 3.5 3.1 78.0 70.0 0.00 0.0000000 38.3
2021-03-01 19:30:00 31.2 19.3 -6.0 31.2 31.2 2.8 3.3 2.8 65.3 73.1 0.00 0.0000000 38.2
2021-03-01 19:35:00 30.7 19.6 -6.2 30.7 30.7 3.0 3.1 2.9 75.8 70.4 0.00 0.0000000 38.2
2021-03-01 19:40:00 30.4 19.7 -6.2 30.4 30.4 3.0 3.3 2.9 66.7 72.5 0.00 0.0000000 38.1
2021-03-01 19:45:00 30.1 20.0 -6.3 30.1 30.1 2.6 3.1 2.7 62.8 66.2 0.00 0.0000000 38.0
2021-03-01 19:50:00 30.9 19.1 -6.5 30.9 30.9 2.8 3.1 2.8 68.1 72.4 0.00 0.0000000 38.0
2021-03-01 19:55:00 30.4 19.3 -6.7 30.4 30.4 2.4 3.3 2.8 68.8 68.6 0.00 0.0000000 37.9
2021-03-01 20:00:00 29.1 20.3 -6.7 29.1 29.1 2.6 2.6 2.3 68.4 65.9 0.00 0.0000000 37.8
2021-03-01 20:05:00 27.4 22.0 -6.6 27.4 27.4 2.6 2.6 2.3 73.8 74.4 0.00 0.0000000 37.8
2021-03-01 20:10:00 27.7 21.2 -7.1 27.7 27.7 3.0 3.1 2.5 73.8 76.1 0.00 0.0000000 37.7
2021-03-01 20:15:00 26.9 22.0 -7.0 23.3 26.9 3.1 3.5 3.2 71.4 71.5 0.00 0.0000000 37.6
2021-03-01 20:20:00 26.4 22.8 -6.7 22.7 26.4 3.1 3.5 3.1 70.0 73.2 0.00 0.0000000 37.6
2021-03-01 20:25:00 25.0 24.1 -6.7 25.0 25.0 2.8 3.3 2.8 78.5 76.2 0.00 0.0000000 37.5
2021-03-01 20:30:00 23.9 25.1 -6.8 23.9 23.9 2.4 3.0 2.7 79.2 76.8 0.00 0.0000000 37.4
2021-03-01 20:35:00 23.7 25.3 -6.9 23.7 23.7 2.8 3.1 2.7 75.1 74.8 0.00 0.0000000 37.4
2021-03-01 20:40:00 24.3 24.9 -6.6 20.4 24.3 3.1 3.1 2.9 80.1 75.2 0.00 0.0000000 37.3
2021-03-01 20:45:00 25.0 24.5 -6.3 20.8 25.0 3.3 3.5 3.2 76.0 74.1 0.00 0.0000000 37.2
2021-03-01 20:50:00 25.1 23.9 -6.8 25.1 25.1 3.0 3.7 3.3 76.3 76.0 0.00 0.0000000 37.2
2021-03-01 20:55:00 25.3 24.2 -6.3 21.3 25.3 3.3 3.5 3.1 79.7 73.5 0.00 0.0000000 37.1
2021-03-01 21:00:00 24.9 24.5 -6.4 24.9 24.9 2.4 3.5 3.0 79.0 76.3 0.00 0.0000000 37.0
2021-03-01 21:05:00 23.1 26.6 -6.3 23.1 23.1 2.2 2.4 2.2 76.9 76.6 0.00 0.0000000 37.0
2021-03-01 21:10:00 22.5 28.1 -5.7 22.5 22.5 2.1 2.2 2.0 84.6 81.5 0.00 0.0000000 36.9
2021-03-01 21:15:00 21.6 28.8 -5.9 21.6 21.6 2.6 3.0 2.4 84.4 85.3 0.00 0.0000000 36.9
2021-03-01 21:20:00 21.9 28.3 -6.0 21.9 21.9 2.4 3.0 2.4 88.2 86.5 0.00 0.0000000 36.8
2021-03-01 21:25:00 22.8 28.1 -5.5 22.8 22.8 2.1 3.0 2.3 81.5 83.6 0.00 0.0000000 36.7
2021-03-01 21:30:00 22.8 28.2 -5.3 22.8 22.8 3.0 3.0 2.0 80.5 77.3 0.00 0.0000000 36.6
2021-03-01 21:35:00 23.9 27.1 -5.2 19.9 23.9 3.1 3.1 2.4 60.1 74.1 0.00 0.0000000 36.6
2021-03-01 21:40:00 24.6 26.7 -4.9 24.6 24.6 2.2 3.1 2.5 72.7 68.0 0.00 0.0000000 36.5
2021-03-01 21:45:00 25.0 26.5 -4.7 25.0 25.0 2.1 2.4 2.1 66.3 62.1 0.00 0.0000000 36.5
2021-03-01 21:50:00 25.7 25.9 -4.6 25.7 25.7 1.9 2.2 1.9 50.4 55.8 0.00 0.0000000 36.4
2021-03-01 21:55:00 26.1 25.3 -4.7 26.1 26.1 2.1 2.6 1.9 60.5 62.8 0.00 0.0000000 36.3
2021-03-01 22:00:00 26.5 25.1 -4.6 26.5 26.5 1.3 1.9 1.6 65.9 72.4 0.00 0.0000000 36.3
2021-03-01 22:05:00 26.8 25.0 -4.3 26.8 26.8 1.7 2.1 1.4 90.4 74.0 0.00 0.0000000 36.2
2021-03-01 22:10:00 26.3 26.2 -3.8 26.3 26.3 2.6 2.8 2.0 62.4 70.5 0.00 0.0000000 36.1
2021-03-01 22:15:00 26.4 27.7 -2.6 26.4 26.4 2.4 3.3 2.5 70.3 62.8 0.00 0.0000000 36.1
2021-03-01 22:20:00 26.5 28.3 -2.1 26.5 26.5 1.9 2.8 2.3 66.9 61.6 0.00 0.0000000 36.0
2021-03-01 22:25:00 26.7 28.5 -1.7 26.7 26.7 2.6 2.8 2.2 68.8 56.1 0.00 0.0000000 35.9
2021-03-01 22:30:00 26.8 28.0 -2.0 26.8 26.8 2.2 3.5 2.3 44.4 47.4 0.00 0.0000000 35.9
2021-03-01 22:35:00 27.3 27.0 -2.3 27.3 27.3 1.3 2.8 2.3 41.6 45.5 0.00 0.0000000 35.8
2021-03-01 22:40:00 27.7 26.5 -2.4 27.7 27.7 1.9 2.8 2.2 38.4 45.7 0.00 0.0000000 35.8
2021-03-01 22:45:00 28.1 26.5 -2.1 28.1 28.1 1.9 3.3 2.2 33.7 44.7 0.00 0.0000000 35.7
2021-03-01 22:50:00 28.2 26.8 -1.7 28.2 28.2 2.1 3.7 2.5 70.6 46.1 0.00 0.0000000 35.7
2021-03-01 22:55:00 28.0 26.3 -2.2 28.0 28.0 1.5 3.5 2.1 31.9 54.4 0.00 0.0000000 35.6
2021-03-01 23:00:00 27.6 26.9 -2.1 27.6 27.6 2.4 2.8 2.2 42.6 55.2 0.00 0.0000000 35.6
2021-03-01 23:05:00 27.4 27.7 -1.7 27.4 27.4 1.2 3.0 1.8 24.8 43.3 0.00 0.0000000 35.5
2021-03-01 23:10:00 27.5 27.4 -1.8 27.5 27.5 1.9 3.7 2.2 62.3 60.5 0.00 0.0000000 35.5
2021-03-01 23:15:00 27.6 27.9 -1.4 27.6 27.6 2.1 3.5 2.1 63.3 58.5 0.00 0.0000000 35.4
2021-03-01 23:20:00 27.7 27.5 -1.6 27.7 27.7 1.5 2.8 1.8 92.5 70.4 0.00 0.0000000 35.4
2021-03-01 23:25:00 27.2 28.3 -1.4 27.2 27.2 1.2 3.1 2.0 81.9 63.0 0.00 0.0000000 35.4
2021-03-01 23:30:00 27.1 27.7 -2.0 27.1 27.1 1.9 3.5 2.2 83.8 74.7 0.00 0.0000000 35.3
2021-03-01 23:35:00 27.3 27.4 -2.0 27.3 27.3 1.5 2.8 2.0 62.2 71.4 0.00 0.0000000 35.3
2021-03-01 23:40:00 27.5 27.2 -2.0 27.5 27.5 1.9 3.5 2.2 63.7 58.6 0.00 0.0000000 35.3
2021-03-01 23:45:00 27.4 27.2 -2.1 27.4 27.4 1.3 3.0 1.9 96.4 63.1 0.00 0.0000000 35.2
2021-03-01 23:50:00 27.4 26.9 -2.3 27.4 27.4 2.6 3.1 2.2 118.1 122.2 0.00 0.0000000 35.2
2021-03-01 23:55:00 26.9 27.7 -2.1 26.9 26.9 1.9 2.8 2.3 96.4 152.5 0.00 0.0000000 35.1
2021-03-02 00:00:00 25.9 29.6 -1.6 25.9 25.9 2.1 3.7 2.7 175.7 185.9 0.00 0.0000000 35.1
2021-03-02 00:05:00 25.1 30.0 -2.0 20.8 25.1 3.5 3.5 3.0 207.7 180.8 0.00 0.0000000 35.1
2021-03-02 00:10:00 25.6 29.2 -2.1 25.6 25.6 2.8 3.3 2.9 132.3 150.2 0.00 0.0000000 35.0
2021-03-02 00:15:00 24.7 30.6 -2.0 24.7 24.7 2.8 3.8 3.0 110.1 117.2 0.00 0.0000000 35.0
2021-03-02 00:20:00 24.1 29.9 -3.0 24.1 24.1 1.7 2.8 2.0 85.8 83.6 0.00 0.0000000 35.0
2021-03-02 00:25:00 25.6 30.3 -1.4 25.6 25.6 2.6 3.3 2.3 110.9 93.2 0.00 0.0000000 34.9
2021-03-02 00:30:00 27.6 28.8 -0.7 23.3 27.6 3.7 4.6 3.5 106.8 104.3 0.00 0.0000000 34.9
2021-03-02 00:35:00 28.5 28.6 -0.1 28.5 28.5 3.0 4.4 3.0 99.3 100.5 0.00 0.0000000 34.9
2021-03-02 00:40:00 28.8 29.8 1.1 25.2 28.8 3.3 4.4 3.2 91.6 94.7 0.00 0.0000000 34.9
2021-03-02 00:45:00 29.1 31.1 2.2 29.1 29.1 2.8 4.2 3.2 54.4 74.7 0.00 0.0000000 34.8
2021-03-02 00:50:00 29.3 31.8 2.9 29.3 29.3 2.8 5.1 3.2 64.0 66.1 0.00 0.0000000 34.8
2021-03-02 00:55:00 29.5 32.5 3.5 29.5 29.5 3.0 4.2 3.0 50.4 59.0 0.00 0.0000000 34.8
2021-03-02 01:00:00 29.6 32.8 3.9 24.5 29.6 4.7 5.1 3.3 31.7 51.2 0.00 0.0000000 34.8
2021-03-02 01:05:00 29.5 33.2 4.0 25.8 29.5 3.5 5.1 3.0 55.5 64.9 0.00 0.0000000 34.7
2021-03-02 01:10:00 29.1 33.7 4.0 29.1 29.1 2.6 4.2 2.8 71.6 73.3 0.00 0.0000000 34.7
2021-03-02 01:15:00 28.6 34.9 4.3 28.6 28.6 2.2 4.0 2.3 53.4 83.8 0.00 0.0000000 34.7
2021-03-02 01:20:00 28.2 35.9 4.6 24.6 28.2 3.3 4.0 2.7 101.3 88.5 0.00 0.0000000 34.7
2021-03-02 01:25:00 27.7 36.0 4.2 23.1 27.7 4.0 4.4 2.9 73.7 84.1 0.00 0.0000000 34.7
2021-03-02 01:30:00 28.0 34.9 3.8 24.6 28.0 3.1 4.4 2.8 19.5 82.4 0.00 0.0000000 34.6
2021-03-02 01:35:00 27.6 34.5 3.2 27.6 27.6 2.8 4.6 2.8 86.9 77.5 0.00 0.0000000 34.6
2021-03-02 01:40:00 27.8 34.1 3.2 23.9 27.8 3.5 3.8 2.6 29.2 58.4 0.00 0.0000000 34.6
2021-03-02 01:45:00 27.8 33.6 2.8 27.8 27.8 1.9 4.9 2.8 105.0 61.3 0.00 0.0000000 34.6
2021-03-02 01:50:00 27.6 34.1 2.9 27.6 27.6 1.3 2.4 1.8 162.7 340.3 0.00 0.0000000 34.6
2021-03-02 01:55:00 25.9 37.1 3.2 25.9 25.9 3.0 4.2 2.9 238.4 235.2 0.00 0.0000000 34.5
2021-03-02 02:00:00 25.3 37.0 2.6 20.9 25.3 3.5 4.6 3.2 273.3 267.1 0.00 0.0000000 34.5
2021-03-02 02:05:00 24.0 39.8 3.0 24.0 24.0 2.6 3.8 2.8 242.9 263.5 0.00 0.0000000 34.5
2021-03-02 02:10:00 22.6 42.3 3.1 22.6 22.6 2.8 3.1 2.4 169.4 198.3 0.00 0.0000000 34.5
2021-03-02 02:15:00 21.9 45.4 4.0 17.7 21.9 3.1 3.1 2.2 226.4 221.6 0.00 0.0000000 34.5
2021-03-02 02:20:00 24.8 43.6 5.7 24.8 24.8 2.8 6.7 4.2 45.6 261.7 0.00 0.0000000 34.4
2021-03-02 02:25:00 26.1 40.9 5.5 20.4 26.1 4.7 6.0 3.2 228.6 85.9 0.00 0.0000000 34.4
2021-03-02 02:30:00 22.5 46.4 5.0 22.5 22.5 1.5 6.3 4.3 303.4 260.6 0.00 0.0000000 34.4
2021-03-02 02:35:00 21.8 47.7 5.0 14.6 21.8 5.5 5.5 3.3 247.6 253.2 0.00 0.0000000 34.4
2021-03-02 02:40:00 19.6 51.4 4.5 19.6 19.6 2.1 5.3 2.9 189.6 243.3 0.00 0.0000000 34.4
2021-03-02 02:45:00 19.2 52.2 4.5 19.2 19.2 2.2 4.0 2.2 171.7 157.8 0.00 0.0000000 34.4
2021-03-02 02:50:00 19.1 53.8 5.1 13.6 19.1 3.7 4.9 3.6 132.1 149.6 0.00 0.0000000 34.3
2021-03-02 02:55:00 18.4 54.1 4.6 13.1 18.4 3.5 3.5 2.5 60.5 103.6 0.00 0.0000000 34.3
2021-03-02 03:00:00 18.7 54.3 4.9 18.7 18.7 2.8 3.8 2.6 61.8 82.4 0.00 0.0000000 34.3
2021-03-02 03:05:00 18.5 54.7 4.9 18.5 18.5 2.1 3.0 2.3 47.3 58.0 0.00 0.0000000 34.3
2021-03-02 03:10:00 18.5 55.3 5.1 18.5 18.5 3.0 3.7 2.3 93.8 90.7 0.00 0.0000000 34.3
2021-03-02 03:15:00 18.4 55.1 5.0 18.4 18.4 2.1 3.5 2.3 130.4 105.1 0.00 0.0000000 34.2
2021-03-02 03:20:00 17.8 56.1 4.8 17.8 17.8 3.0 4.4 2.8 143.0 148.3 0.00 0.0000000 34.2
2021-03-02 03:25:00 17.7 57.7 5.3 17.7 17.7 2.6 3.8 3.0 116.9 137.2 0.00 0.0000000 34.2
2021-03-02 03:30:00 17.3 59.1 5.5 17.3 17.3 3.0 5.1 3.1 120.3 129.5 0.00 0.0000000 34.2
2021-03-02 03:35:00 17.9 59.2 6.1 9.5 17.9 6.0 6.7 5.1 138.2 129.8 0.00 0.0000000 34.2
2021-03-02 03:40:00 18.3 58.0 6.0 18.3 18.3 2.2 6.2 3.1 158.6 104.4 0.00 0.0000000 34.2
2021-03-02 03:45:00 17.8 58.9 5.8 17.8 17.8 2.1 2.8 2.1 126.8 95.2 0.00 0.0000000 34.1
2021-03-02 03:50:00 17.4 59.8 5.8 17.4 17.4 2.2 3.3 2.6 124.1 96.0 0.00 0.0000000 34.1
2021-03-02 03:55:00 17.0 60.5 5.7 17.0 17.0 1.9 3.0 2.3 94.2 54.1 0.00 0.0000000 34.1
2021-03-02 04:00:00 17.0 60.7 5.7 17.0 17.0 1.5 2.2 1.6 51.8 62.0 0.00 0.0000000 34.1
2021-03-02 04:05:00 16.8 61.5 5.8 16.8 16.8 1.3 1.5 1.0 176.5 78.4 0.00 0.0000000 34.1
2021-03-02 04:10:00 17.1 60.1 5.6 17.1 17.1 2.4 2.8 2.0 130.0 143.0 0.00 0.0000000 34.1
2021-03-02 04:15:00 16.5 60.5 5.2 9.8 16.5 4.2 4.6 3.3 128.7 148.1 0.00 0.0000000 34.0
2021-03-02 04:20:00 15.9 64.8 6.1 8.4 15.9 4.7 4.7 4.0 113.0 125.3 0.00 0.0000000 34.0
2021-03-02 04:25:00 16.5 62.5 6.0 11.6 16.5 3.1 3.8 3.0 134.7 116.6 0.00 0.0000000 34.0
2021-03-02 04:30:00 15.9 63.5 5.7 15.9 15.9 2.6 3.8 3.2 133.2 126.9 0.00 0.0000000 34.0
2021-03-02 04:35:00 16.3 63.2 6.0 11.0 16.3 3.3 3.5 2.8 126.4 116.2 0.00 0.0000000 34.0
2021-03-02 04:40:00 16.5 64.5 6.6 16.5 16.5 1.5 3.8 2.7 127.4 121.1 0.00 0.0000000 34.0
2021-03-02 04:45:00 17.1 63.3 6.7 17.1 17.1 1.3 2.2 1.8 109.2 121.6 0.00 0.0000000 34.0
2021-03-02 04:50:00 17.8 61.2 6.7 17.8 17.8 3.0 3.0 1.9 113.3 95.9 0.00 0.0000000 33.9
2021-03-02 04:55:00 18.1 62.1 7.3 13.0 18.1 3.3 3.3 2.4 86.3 105.3 0.00 0.0000000 33.9
2021-03-02 05:00:00 18.6 60.6 7.2 12.3 18.6 4.2 4.4 2.8 120.5 113.4 0.00 0.0000000 33.9
2021-03-02 05:05:00 20.3 58.1 7.9 20.3 20.3 2.1 3.8 2.6 115.1 107.0 0.00 0.0000000 33.9
2021-03-02 05:10:00 21.5 55.6 8.0 21.5 21.5 2.8 3.3 2.3 115.5 102.1 0.00 0.0000000 33.9
2021-03-02 05:15:00 21.6 54.9 7.9 21.6 21.6 2.2 4.2 3.0 124.2 109.4 0.00 0.0000000 33.9
2021-03-02 05:20:00 21.9 54.2 7.9 21.9 21.9 1.9 3.0 2.1 99.5 107.2 0.00 0.0000000 33.9
2021-03-02 05:25:00 22.2 53.3 7.8 22.2 22.2 2.1 2.6 2.1 91.9 100.4 0.00 0.0000000 33.9
2021-03-02 05:30:00 22.9 52.0 7.9 22.9 22.9 2.8 3.3 2.6 101.3 100.9 0.00 0.0000000 33.8
2021-03-02 05:35:00 23.6 51.3 8.2 19.6 23.6 3.1 3.8 2.7 41.4 87.7 0.00 0.0000000 33.8
2021-03-02 05:40:00 24.2 50.3 8.3 24.2 24.2 2.4 5.1 3.1 133.8 104.5 0.00 0.0000000 33.8
2021-03-02 05:45:00 24.6 49.6 8.4 24.6 24.6 3.0 4.4 3.0 4.9 94.3 0.00 0.0000000 33.8
2021-03-02 05:50:00 25.1 49.0 8.6 25.1 25.1 2.6 4.9 3.5 86.1 95.3 0.00 0.0000000 33.8
2021-03-02 05:55:00 25.3 48.8 8.7 19.7 25.3 4.6 6.2 3.5 157.3 97.3 0.00 0.0000000 33.8
2021-03-02 06:00:00 25.4 48.5 8.7 25.4 25.4 3.0 4.0 2.8 65.3 89.6 0.00 0.0000000 33.8
2021-03-02 06:05:00 25.5 48.7 8.8 25.5 25.5 3.0 4.9 3.1 104.5 103.0 0.00 0.0000000 33.8
2021-03-02 06:10:00 25.4 48.4 8.7 21.4 25.4 3.3 6.0 3.8 29.6 85.8 0.00 0.0000000 33.7
2021-03-02 06:15:00 25.9 47.4 8.6 25.9 25.9 3.0 5.5 3.5 99.1 86.6 0.00 0.0000000 33.7
2021-03-02 06:20:00 25.7 47.4 8.4 25.7 25.7 2.8 4.6 2.7 272.7 351.8 0.00 0.0000000 33.7
2021-03-02 06:25:00 24.1 49.6 7.9 24.1 24.1 1.7 5.5 4.0 216.4 240.8 0.00 0.0000000 33.7
2021-03-02 06:30:00 23.3 51.1 7.9 23.3 23.3 1.5 2.8 1.8 187.1 238.6 0.00 0.0010000 33.7
2021-03-02 06:35:00 22.9 51.9 7.8 22.9 22.9 2.4 3.7 2.4 250.8 263.8 0.00 0.0020000 33.7
2021-03-02 06:40:00 22.1 53.2 7.6 22.1 22.1 1.9 3.8 2.7 307.0 304.1 0.00 0.0040000 33.7
2021-03-02 06:45:00 23.2 51.7 8.0 23.2 23.2 1.7 5.8 3.6 31.4 357.8 0.00 0.0060000 33.6
2021-03-02 06:50:00 24.1 50.4 8.3 18.4 24.1 4.4 5.1 2.9 22.5 34.2 0.00 0.0080000 33.6
2021-03-02 06:55:00 24.5 49.9 8.4 24.5 24.5 1.3 4.6 2.9 224.2 43.7 0.00 0.0100000 33.6
2021-03-02 07:00:00 24.9 49.6 8.7 24.9 24.9 1.9 3.3 2.1 35.3 65.5 0.00 0.0120000 33.6
2021-03-02 07:05:00 25.2 48.4 8.4 19.4 25.2 4.7 5.5 3.2 108.1 87.7 0.00 0.0180000 33.6
2021-03-02 07:10:00 25.5 49.3 9.1 21.0 25.5 3.7 6.5 4.9 178.6 119.2 0.00 0.0200000 33.6
2021-03-02 07:15:00 25.4 48.8 8.8 21.4 25.4 3.3 7.4 5.5 134.9 128.3 0.00 0.0370000 33.6
2021-03-02 07:20:00 25.9 48.6 9.2 20.3 25.9 4.6 6.0 4.0 164.7 172.8 0.00 0.0400000 33.6

Data is courtesy of the NM Climate Center. DO NOT USE IN LEGAL PROCEEDINGS.